createdAt,value
2024-03-09T00:01:45.034Z,42.05
2024-03-09T00:04:46.868Z,42.95
2024-03-09T00:07:49.677Z,43.55
2024-03-09T00:10:51.902Z,43.66
2024-03-09T00:13:53.695Z,43.95
2024-03-09T00:16:55.484Z,43.93
2024-03-09T00:20:00.502Z,43.30
2024-03-09T00:23:07.394Z,43.56
2024-03-09T00:26:11.406Z,42.84
2024-03-09T00:29:13.477Z,42.63
2024-03-09T00:32:15.397Z,44.04
2024-03-09T00:35:17.476Z,43.63
2024-03-09T00:38:20.437Z,43.16
2024-03-09T00:41:22.258Z,42.11
2024-03-09T00:44:24.089Z,42.79
2024-03-09T00:47:25.807Z,42.73
2024-03-09T00:50:28.515Z,41.60
2024-03-09T00:53:31.859Z,42.15
2024-03-09T00:56:34.395Z,41.47
2024-03-09T00:59:36.175Z,41.22
2024-03-09T01:02:42.542Z,41.59
2024-03-09T01:05:45.710Z,40.63
2024-03-09T01:08:50.362Z,41.10
2024-03-09T01:11:53.682Z,40.47
2024-03-09T01:14:56.470Z,39.29
2024-03-09T01:17:58.628Z,37.69
2024-03-09T01:21:00.448Z,38.88
2024-03-09T01:24:02.829Z,37.61
2024-03-09T01:27:05.930Z,37.53
2024-03-09T01:30:08.586Z,37.82
2024-03-09T01:33:10.596Z,38.06
2024-03-09T01:36:12.409Z,37.19
2024-03-09T01:39:17.156Z,36.76
2024-03-09T01:42:22.997Z,36.88
2024-03-09T01:45:28.012Z,36.23
2024-03-09T01:48:30.994Z,37.24
2024-03-09T01:51:35.846Z,37.10
2024-03-09T01:54:43.039Z,37.36
2024-03-09T01:57:45.038Z,37.39
2024-03-09T02:00:56.315Z,36.58
2024-03-09T02:03:58.166Z,37.47
2024-03-09T02:07:00.077Z,37.29
2024-03-09T02:10:02.161Z,36.78
2024-03-09T02:13:04.486Z,36.61
2024-03-09T02:16:06.410Z,36.62
2024-03-09T02:19:10.166Z,36.75
2024-03-09T02:22:18.449Z,38.88
2024-03-09T02:25:22.785Z,37.23
2024-03-09T02:28:24.635Z,38.10
2024-03-09T02:31:29.508Z,38.52
2024-03-09T02:34:31.466Z,39.30
2024-03-09T02:37:35.068Z,37.89
2024-03-09T02:40:36.843Z,41.11
2024-03-09T02:43:38.820Z,40.74
2024-03-09T02:46:41.050Z,39.51
2024-03-09T02:49:42.964Z,40.54
2024-03-09T02:52:44.717Z,41.16
2024-03-09T02:55:47.033Z,41.28
2024-03-09T02:58:50.078Z,40.72
2024-03-09T03:01:53.317Z,40.90
2024-03-09T03:04:55.142Z,41.05
2024-03-09T03:07:56.968Z,40.58
2024-03-09T03:10:58.824Z,40.49
2024-03-09T03:14:02.704Z,40.55
2024-03-09T03:17:08.560Z,40.76
2024-03-09T03:20:11.400Z,40.49
2024-03-09T03:23:14.019Z,39.37
2024-03-09T03:26:17.059Z,39.27
2024-03-09T03:29:18.914Z,39.04
2024-03-09T03:32:20.783Z,38.57
2024-03-09T03:35:25.967Z,38.24
2024-03-09T03:38:27.718Z,37.72
2024-03-09T03:41:29.442Z,38.48
2024-03-09T03:44:35.727Z,37.60
2024-03-09T03:47:37.464Z,37.80
2024-03-09T03:50:39.348Z,37.10
2024-03-09T03:53:42.849Z,36.93
2024-03-09T03:56:44.594Z,37.33
2024-03-09T03:59:46.360Z,37.60
2024-03-09T04:02:48.211Z,37.11
2024-03-09T04:05:50.314Z,36.96
2024-03-09T04:08:52.143Z,36.93
2024-03-09T04:11:54.586Z,37.26
2024-03-09T04:14:58.314Z,37.11
2024-03-09T04:18:04.168Z,36.73
2024-03-09T04:21:06.185Z,36.95
2024-03-09T04:24:10.578Z,36.78
2024-03-09T04:27:12.413Z,36.78
2024-03-09T04:30:17.182Z,37.00
2024-03-09T04:33:20.741Z,37.65
2024-03-09T04:36:27.393Z,37.75
2024-03-09T04:39:30.883Z,36.93
2024-03-09T04:42:32.673Z,38.00
2024-03-09T04:45:34.705Z,38.20
2024-03-09T04:48:36.449Z,39.33
2024-03-09T04:51:38.179Z,40.91
2024-03-09T04:54:44.997Z,42.62
2024-03-09T04:57:47.097Z,43.33
2024-03-09T05:00:48.927Z,43.50
2024-03-09T05:03:50.708Z,44.17
2024-03-09T05:06:52.571Z,44.22
2024-03-09T05:09:54.361Z,43.79
2024-03-09T05:12:56.672Z,44.50
2024-03-09T05:15:58.456Z,44.87
2024-03-09T05:19:00.963Z,44.45
2024-03-09T05:22:02.781Z,43.78
2024-03-09T05:25:05.822Z,44.08
2024-03-09T05:28:07.712Z,43.36
2024-03-09T05:31:26.546Z,43.58
2024-03-09T05:34:28.368Z,44.20
2024-03-09T05:37:30.093Z,42.89
2024-03-09T05:40:32.445Z,43.35
2024-03-09T05:43:34.450Z,43.22
2024-03-09T05:46:36.253Z,42.68
2024-03-09T05:49:38.390Z,43.10
2024-03-09T05:52:42.035Z,42.68
2024-03-09T05:55:45.200Z,42.48
2024-03-09T05:58:47.372Z,41.41
2024-03-09T06:01:49.167Z,41.12
2024-03-09T06:04:50.997Z,40.19
2024-03-09T06:07:52.748Z,39.44
2024-03-09T06:11:01.264Z,39.27
2024-03-09T06:14:05.468Z,38.75
2024-03-09T06:17:08.200Z,37.35
2024-03-09T06:20:11.088Z,37.39
2024-03-09T06:23:13.747Z,37.08
2024-03-09T06:26:15.550Z,37.49
2024-03-09T06:29:17.932Z,35.94
2024-03-09T06:32:19.661Z,36.18
2024-03-09T06:35:23.177Z,35.33
2024-03-09T06:38:25.162Z,34.60
2024-03-09T06:41:27.567Z,34.93
2024-03-09T06:44:29.479Z,34.93
2024-03-09T06:47:32.259Z,35.89
2024-03-09T06:50:36.438Z,35.88
2024-03-09T06:53:38.306Z,36.30
2024-03-09T06:56:40.595Z,35.78
2024-03-09T06:59:42.336Z,36.13
2024-03-09T07:02:44.699Z,36.56
2024-03-09T07:05:47.414Z,34.34
2024-03-09T07:08:49.147Z,34.44
2024-03-09T07:11:53.847Z,34.60
2024-03-09T07:14:55.912Z,33.68
2024-03-09T07:17:58.197Z,33.29
2024-03-09T07:21:00.066Z,32.34
2024-03-09T07:24:01.895Z,31.34
2024-03-09T07:27:03.709Z,32.59
2024-03-09T07:30:09.566Z,30.55
2024-03-09T07:33:11.949Z,30.90
2024-03-09T07:36:14.697Z,30.92
2024-03-09T07:39:17.426Z,29.79
2024-03-09T07:42:19.244Z,29.60
2024-03-09T07:45:24.289Z,29.49
2024-03-09T07:48:26.303Z,29.93
2024-03-09T07:51:30.323Z,28.42
2024-03-09T07:54:33.228Z,28.47
2024-03-09T07:57:35.096Z,28.74
2024-03-09T08:00:36.899Z,28.44
2024-03-09T08:03:38.734Z,27.41
2024-03-09T08:06:41.496Z,27.11
2024-03-09T08:09:43.215Z,26.89
2024-03-09T08:12:46.005Z,25.94
2024-03-09T08:15:47.824Z,25.75
2024-03-09T08:18:49.541Z,24.92
2024-03-09T08:21:52.571Z,24.63
2024-03-09T08:24:56.960Z,25.12
2024-03-09T08:28:02.124Z,24.68
2024-03-09T08:31:09.435Z,24.86
2024-03-09T08:34:11.132Z,24.60
2024-03-09T08:37:14.188Z,24.54
2024-03-09T08:40:20.835Z,24.49
2024-03-09T08:43:22.657Z,24.74
2024-03-09T08:46:24.426Z,24.20
2024-03-09T08:49:26.181Z,24.04
2024-03-09T08:52:28.092Z,24.18
2024-03-09T08:55:30.040Z,23.71
2024-03-09T08:58:32.572Z,24.01
2024-03-09T09:01:34.353Z,24.60
2024-03-09T09:04:36.219Z,24.26
2024-03-09T09:07:42.794Z,23.90
2024-03-09T09:10:44.794Z,23.50
2024-03-09T09:13:47.110Z,23.25
2024-03-09T09:16:49.006Z,22.70
2024-03-09T09:19:50.771Z,22.77
2024-03-09T09:22:55.147Z,23.11
2024-03-09T09:25:59.004Z,23.10
2024-03-09T09:29:01.820Z,22.32
2024-03-09T09:32:05.292Z,22.89
2024-03-09T09:35:07.519Z,22.88
2024-03-09T09:38:09.449Z,23.73
2024-03-09T09:41:13.594Z,22.76
2024-03-09T09:44:17.148Z,21.93
2024-03-09T09:47:19.355Z,20.89
2024-03-09T09:50:23.886Z,19.96
2024-03-09T09:53:25.977Z,21.02
2024-03-09T09:56:27.781Z,20.32
2024-03-09T09:59:31.343Z,20.15
2024-03-09T10:02:33.992Z,21.02
2024-03-09T10:05:35.763Z,19.92
2024-03-09T10:08:54.406Z,20.12
2024-03-09T10:11:57.529Z,19.58
2024-03-09T10:15:12.491Z,20.16
2024-03-09T10:18:14.711Z,19.95
2024-03-09T10:21:38.786Z,20.05
2024-03-09T10:24:58.969Z,19.70
2024-03-09T10:28:00.853Z,19.66
2024-03-09T10:31:09.005Z,19.61
2024-03-09T10:34:13.594Z,19.33
2024-03-09T10:37:19.483Z,17.81
2024-03-09T10:40:21.885Z,18.02
2024-03-09T10:43:24.294Z,17.46
2024-03-09T10:46:29.824Z,17.22
2024-03-09T10:49:35.126Z,17.17
2024-03-09T10:52:46.834Z,17.67
2024-03-09T10:56:01.004Z,17.25
2024-03-09T10:59:04.462Z,17.70
2024-03-09T11:02:09.086Z,16.93
2024-03-09T11:05:12.383Z,16.72
2024-03-09T11:08:15.151Z,16.45
2024-03-09T11:11:23.574Z,16.51
2024-03-09T11:14:26.327Z,16.45
2024-03-09T11:17:36.162Z,16.03
2024-03-09T11:20:55.634Z,15.72
2024-03-09T11:24:01.234Z,16.20
2024-03-09T11:27:03.573Z,15.33
2024-03-09T11:30:07.598Z,15.85
2024-03-09T11:33:12.221Z,14.58
2024-03-09T11:36:53.911Z,14.40
2024-03-09T11:39:56.068Z,15.03
2024-03-09T11:43:05.820Z,14.78
2024-03-09T11:46:10.782Z,14.54
2024-03-09T11:49:12.548Z,13.87
2024-03-09T11:52:16.132Z,14.22
2024-03-09T11:55:21.925Z,14.42
2024-03-09T11:58:23.978Z,14.57
2024-03-09T12:01:25.981Z,14.26
2024-03-09T12:04:28.139Z,13.77
2024-03-09T12:07:29.939Z,14.32
2024-03-09T12:10:33.123Z,14.15
2024-03-09T12:13:35.046Z,13.78
2024-03-09T12:16:38.590Z,13.25
2024-03-09T12:19:45.446Z,12.80
2024-03-09T12:22:47.620Z,12.71
2024-03-09T12:25:49.395Z,12.93
2024-03-09T12:28:51.543Z,13.09
2024-03-09T12:31:53.368Z,12.79
2024-03-09T12:34:55.861Z,12.87
2024-03-09T12:37:57.826Z,13.37
2024-03-09T12:40:59.817Z,13.41
2024-03-09T12:44:07.424Z,14.14
2024-03-09T12:47:15.774Z,13.90
2024-03-09T12:50:20.524Z,13.68
2024-03-09T12:53:24.293Z,13.44
2024-03-09T12:56:33.918Z,14.94
2024-03-09T12:59:37.826Z,15.76
2024-03-09T13:02:39.617Z,14.65
2024-03-09T13:05:41.339Z,14.68
2024-03-09T13:08:44.464Z,14.66
2024-03-09T13:11:48.321Z,14.57
2024-03-09T13:14:52.902Z,14.79
2024-03-09T13:17:58.870Z,15.85
2024-03-09T13:21:03.062Z,14.97
2024-03-09T13:24:10.065Z,14.95
2024-03-09T13:27:13.886Z,15.39
2024-03-09T13:30:18.694Z,15.51
2024-03-09T13:33:20.456Z,15.64
2024-03-09T13:36:26.104Z,15.75
2024-03-09T13:39:36.593Z,15.77
2024-03-09T13:42:39.671Z,15.83
2024-03-09T13:45:41.928Z,15.77
2024-03-09T13:48:44.506Z,16.13
2024-03-09T13:51:46.432Z,16.62
2024-03-09T13:54:48.219Z,16.59
2024-03-09T13:57:50.002Z,16.06
2024-03-09T14:00:51.819Z,16.07
2024-03-09T14:03:56.600Z,15.57
2024-03-09T14:07:07.584Z,15.33
2024-03-09T14:10:16.738Z,15.63
2024-03-09T14:13:21.371Z,15.17
2024-03-09T14:16:25.562Z,15.46
2024-03-09T14:19:29.486Z,15.41
2024-03-09T14:22:34.174Z,15.30
2024-03-09T14:25:37.077Z,15.41
2024-03-09T14:28:39.722Z,15.63
2024-03-09T14:31:41.808Z,15.42
2024-03-09T14:34:43.616Z,15.72
2024-03-09T14:37:45.526Z,15.91
2024-03-09T14:40:53.123Z,15.60
2024-03-09T14:43:55.254Z,15.91
2024-03-09T14:46:58.256Z,15.91
2024-03-09T14:50:00.074Z,15.68
2024-03-09T14:53:09.896Z,15.70
2024-03-09T14:56:11.730Z,15.92
2024-03-09T14:59:14.296Z,15.54
2024-03-09T15:02:16.124Z,15.97
2024-03-09T15:05:18.698Z,16.32
2024-03-09T15:08:22.815Z,16.90
2024-03-09T15:11:24.875Z,16.95
2024-03-09T15:14:27.212Z,16.42
2024-03-09T15:17:29.411Z,16.63
2024-03-09T15:20:31.263Z,16.57
2024-03-09T15:23:33.268Z,16.71
2024-03-09T15:26:38.605Z,16.33
2024-03-09T15:29:40.631Z,16.82
2024-03-09T15:32:42.491Z,16.87
2024-03-09T15:35:44.248Z,16.84
2024-03-09T15:38:46.161Z,17.13
2024-03-09T15:41:47.900Z,18.09
2024-03-09T15:44:49.818Z,18.24
2024-03-09T15:47:51.872Z,18.03
2024-03-09T15:50:54.232Z,18.73
2024-03-09T15:53:56.052Z,18.08
2024-03-09T15:56:57.837Z,18.31
2024-03-09T15:59:59.664Z,18.34
2024-03-09T16:03:04.639Z,18.25
2024-03-09T16:06:06.538Z,18.28
2024-03-09T16:09:13.346Z,18.28
2024-03-09T16:12:18.194Z,18.73
2024-03-09T16:15:25.693Z,19.27
2024-03-09T16:18:27.537Z,18.53
2024-03-09T16:21:29.322Z,19.29
2024-03-09T16:24:31.104Z,19.33
2024-03-09T16:27:32.811Z,19.06
2024-03-09T16:30:34.604Z,19.68
2024-03-09T16:33:37.963Z,19.64
2024-03-09T16:36:39.771Z,19.64
2024-03-09T16:39:41.683Z,19.38
2024-03-09T16:42:46.651Z,19.80
2024-03-09T16:45:48.385Z,19.51
2024-03-09T16:48:52.291Z,20.21
2024-03-09T16:51:54.147Z,19.85
2024-03-09T16:54:55.904Z,19.68
2024-03-09T16:58:02.083Z,20.41
2024-03-09T17:01:06.154Z,23.06
2024-03-09T17:04:13.067Z,25.73
2024-03-09T17:07:14.916Z,23.73
2024-03-09T17:10:19.372Z,22.06
2024-03-09T17:13:24.902Z,20.06
2024-03-09T17:16:26.629Z,20.40
2024-03-09T17:19:28.425Z,20.34
2024-03-09T17:22:31.840Z,19.73
2024-03-09T17:25:36.399Z,19.94
2024-03-09T17:28:38.906Z,19.41
2024-03-09T17:31:40.727Z,20.92
2024-03-09T17:34:43.344Z,21.99
2024-03-09T17:37:47.552Z,21.77
2024-03-09T17:40:49.512Z,20.57
2024-03-09T17:43:51.436Z,20.65
2024-03-09T17:46:57.277Z,20.00
2024-03-09T17:49:59.101Z,20.35
2024-03-09T17:53:01.437Z,20.57
2024-03-09T17:56:03.365Z,19.89
2024-03-09T17:59:07.151Z,20.16
2024-03-09T18:02:10.029Z,20.55
2024-03-09T18:05:12.636Z,20.41
2024-03-09T18:08:15.865Z,20.00
2024-03-09T18:11:17.857Z,20.66
2024-03-09T18:14:21.650Z,21.23
2024-03-09T18:17:24.737Z,21.17
2024-03-09T18:20:28.745Z,21.31
2024-03-09T18:23:30.592Z,21.04
2024-03-09T18:26:34.250Z,21.11
2024-03-09T18:29:36.032Z,21.09
2024-03-09T18:32:44.156Z,21.68
2024-03-09T18:35:47.680Z,21.20
2024-03-09T18:38:50.330Z,21.49
2024-03-09T18:41:53.861Z,22.16
2024-03-09T18:44:55.823Z,21.90
2024-03-09T18:47:58.887Z,22.18
2024-03-09T18:51:01.533Z,22.07
2024-03-09T18:54:03.363Z,21.87
2024-03-09T18:57:05.364Z,22.04
2024-03-09T19:00:19.161Z,22.20
2024-03-09T19:03:22.445Z,22.57
2024-03-09T19:06:24.291Z,21.97
2024-03-09T19:09:25.998Z,22.46
2024-03-09T19:12:27.791Z,21.95
2024-03-09T19:15:29.579Z,22.26
2024-03-09T19:18:31.626Z,22.13
2024-03-09T19:21:33.723Z,21.95
2024-03-09T19:24:35.474Z,22.34
2024-03-09T19:27:47.243Z,22.52
2024-03-09T19:30:49.466Z,22.05
2024-03-09T19:33:51.202Z,21.98
2024-03-09T19:36:53.660Z,22.16
2024-03-09T19:39:56.160Z,22.92
2024-03-09T19:43:01.627Z,22.83
2024-03-09T19:46:03.709Z,22.84
2024-03-09T19:49:05.453Z,22.63
2024-03-09T19:52:07.232Z,22.79
2024-03-09T19:55:13.362Z,22.65
2024-03-09T19:58:16.590Z,22.45
2024-03-09T20:01:20.891Z,22.83
2024-03-09T20:04:22.711Z,22.51
2024-03-09T20:07:25.986Z,22.22
2024-03-09T20:10:30.830Z,21.79
2024-03-09T20:13:35.841Z,22.51
2024-03-09T20:16:37.584Z,21.70
2024-03-09T20:19:40.162Z,21.43
2024-03-09T20:22:42.739Z,22.02
2024-03-09T20:25:44.576Z,21.92
2024-03-09T20:28:47.838Z,21.93
2024-03-09T20:31:49.795Z,20.93
2024-03-09T20:34:52.945Z,21.58
2024-03-09T20:37:56.742Z,21.68
2024-03-09T20:40:58.589Z,20.82
2024-03-09T20:44:00.716Z,21.19
2024-03-09T20:47:02.737Z,21.16
2024-03-09T20:50:12.344Z,20.86
2024-03-09T20:53:23.801Z,21.04
2024-03-09T20:56:25.680Z,21.22
2024-03-09T20:59:28.695Z,21.10
2024-03-09T21:02:32.850Z,20.73
2024-03-09T21:05:35.400Z,20.97
2024-03-09T21:08:38.620Z,20.40
2024-03-09T21:11:40.916Z,20.59
2024-03-09T21:14:42.675Z,21.30
2024-03-09T21:17:44.780Z,20.80
2024-03-09T21:20:46.610Z,20.61
2024-03-09T21:23:48.391Z,20.44
2024-03-09T21:26:50.132Z,20.15
2024-03-09T21:29:51.914Z,20.20
2024-03-09T21:32:53.790Z,20.20
2024-03-09T21:35:55.598Z,20.43
2024-03-09T21:38:57.534Z,20.30
2024-03-09T21:42:00.107Z,19.80
2024-03-09T21:45:01.921Z,19.79
2024-03-09T21:48:06.503Z,19.57
2024-03-09T21:51:09.489Z,19.41
2024-03-09T21:54:14.322Z,19.17
2024-03-09T21:57:16.112Z,19.00
2024-03-09T22:00:25.239Z,19.58
2024-03-09T22:03:30.034Z,19.38
2024-03-09T22:06:31.858Z,18.50
2024-03-09T22:09:33.970Z,19.28
2024-03-09T22:12:36.420Z,18.56
2024-03-09T22:15:38.694Z,18.72
2024-03-09T22:18:40.425Z,18.46
2024-03-09T22:21:42.246Z,18.60
2024-03-09T22:24:44.023Z,18.10
2024-03-09T22:27:46.134Z,18.59
2024-03-09T22:30:47.855Z,18.64
2024-03-09T22:33:49.580Z,18.21
2024-03-09T22:36:51.351Z,18.43
2024-03-09T22:39:53.053Z,18.54
2024-03-09T22:42:55.184Z,18.76
2024-03-09T22:45:58.589Z,17.82
2024-03-09T22:49:00.950Z,18.07
2024-03-09T22:52:02.823Z,17.75
2024-03-09T22:55:05.402Z,18.35
2024-03-09T22:58:07.190Z,18.30
2024-03-09T23:01:25.691Z,17.72
2024-03-09T23:04:29.062Z,17.77
2024-03-09T23:07:30.824Z,17.56
2024-03-09T23:10:34.144Z,17.55
2024-03-09T23:13:37.200Z,17.65
2024-03-09T23:16:39.000Z,17.76
2024-03-09T23:19:41.294Z,17.03
2024-03-09T23:22:53.139Z,16.89
2024-03-09T23:25:55.095Z,16.98
2024-03-09T23:28:56.918Z,16.73
2024-03-09T23:31:59.190Z,16.60
2024-03-09T23:35:02.905Z,16.65
2024-03-09T23:38:06.649Z,16.21
2024-03-09T23:41:09.044Z,16.39
2024-03-09T23:44:14.064Z,16.58
2024-03-09T23:47:15.941Z,15.44
2024-03-09T23:50:19.069Z,15.06
2024-03-09T23:53:21.789Z,15.01
2024-03-09T23:56:23.727Z,14.42
2024-03-09T23:59:25.721Z,14.84
